Chief — WBY3781 — position and weather

sailwx.info

Track history (hours):
 
Tides and Currents Weather Stations Pressure Air Temp Water Temp Dewpoint Dewpoint Depression Visibility Wind Speed Wind Dir Waves Ship Positions

Chief

Owner: T & C TOWING INC, ELIZABETH CITY, NC. More information available from US FCC via Universal Licensing System and Coast Guard Vessel Documentation Center.

Last reported at 2018-Apr-17 17:42 UTC. Time now 2018-Jun-24 05:09 UTC.
Position N 36°50' W 076°17'.
Warning: this ship's position is months out of date.

Length 30 m; draft 0.3 m.

Type: Tug. MMSI: 280001.

Date/timePositionNaut miles runAvg speedWind from/ knotsBaromVisibWave heightAir tempDewpointWater temp
2018-Apr-17 17:42N 36°50' W 076°17'0 0.0
2018-Apr-17 17:30N 36°50' W 076°17'0 0.0
2018-Apr-17 17:00N 36°50' W 076°17'0 0.1
2018-Apr-17 16:29N 36°50' W 076°17'6 1.2
2018-Apr-17 11:44N 36°56' W 076°20'0 0.0
2018-Apr-17 11:30N 36°56' W 076°20'0 0.0
2018-Apr-17 11:00N 36°56' W 076°20'0 0.0
2018-Apr-17 10:30N 36°56' W 076°20'0 0.0
2018-Apr-17 09:58N 36°56' W 076°20'0 0.0
2018-Apr-17 09:22N 36°56' W 076°20'0 0.0
2018-Apr-17 08:52N 36°56' W 076°20'0 0.0
2018-Apr-17 08:30N 36°56' W 076°20'0 0.0
2018-Apr-17 08:00N 36°56' W 076°20'0 0.0
2018-Apr-17 07:30N 36°56' W 076°20'0 0.0
2018-Apr-17 07:00N 36°56' W 076°20'0 0.0
2018-Apr-17 06:15N 36°56' W 076°20'0 0.0
2018-Apr-17 05:45N 36°56' W 076°20'0 0.0
2018-Apr-17 05:30N 36°56' W 076°20'0 0.0
2018-Apr-17 05:00N 36°56' W 076°20'0 0.0
2018-Apr-17 04:30N 36°56' W 076°20'0 0.0
2018-Apr-17 03:59N 36°56' W 076°20'0 0.0
2018-Apr-17 03:30N 36°56' W 076°20'0 0.0
2018-Apr-17 03:00N 36°56' W 076°20'0 0.0
2018-Apr-17 02:30N 36°56' W 076°20'0 0.0
2018-Apr-17 02:00N 36°56' W 076°20'0 0.0
2018-Apr-17 01:30N 36°56' W 076°20'0 0.0
2018-Apr-17 01:00N 36°56' W 076°20'0 0.0
2018-Apr-17 00:30N 36°56' W 076°20'0 0.0
2018-Apr-17 00:00N 36°56' W 076°20'0 0.0
2018-Apr-16 23:27N 36°56' W 076°20'0 0.0
2018-Apr-16 22:46N 36°56' W 076°20'0 0.0
2018-Apr-16 22:28N 36°56' W 076°20'0 0.0
2018-Apr-16 18:54N 36°56' W 076°20'0 0.0
2018-Apr-16 17:25N 36°56' W 076°20'0 0.0
2018-Apr-16 17:00N 36°56' W 076°20'0 0.0
2018-Apr-16 16:30N 36°56' W 076°20'0 0.0
2018-Apr-16 14:50N 36°56' W 076°20'0 0.0
2018-Apr-16 14:28N 36°56' W 076°20'0 0.0
2018-Apr-16 14:00N 36°56' W 076°20'0 0.0
2018-Apr-16 13:25N 36°56' W 076°20'0 0.0
2018-Apr-16 12:59N 36°56' W 076°20'3 1.2
2018-Apr-16 10:57N 36°53' W 076°20'4 8.0
2018-Apr-16 10:30N 36°51' W 076°17'0 0.1
2018-Apr-16 04:36N 36°50' W 076°17'0 0.0
2018-Apr-16 04:24N 36°50' W 076°17'0 0.0
2018-Apr-16 02:36N 36°50' W 076°17'0 0.0
2018-Apr-16 02:12N 36°50' W 076°17'0 0.0
2018-Apr-15 15:03N 36°50' W 076°17'0 0.0
2018-Apr-15 14:48N 36°50' W 076°17'0 0.0
2018-Apr-15 14:30N 36°50' W 076°17'0 0.0
2018-Apr-15 13:15N 36°50' W 076°17'0 0.0
2018-Apr-15 12:57N 36°50' W 076°17'0 0.0
2018-Apr-15 12:30N 36°50' W 076°17'0 0.0
2018-Apr-14 18:33N 36°50' W 076°17'0 0.0
2018-Apr-14 18:21N 36°50' W 076°17'0 0.0
2018-Apr-14 16:27N 36°50' W 076°17'0 0.0
2018-Apr-14 15:51N 36°50' W 076°17'0 0.0
2018-Apr-14 15:24N 36°50' W 076°17'0 0.0
2018-Apr-14 14:15N 36°50' W 076°17'0 0.0
2018-Apr-14 14:00N 36°50' W 076°17'0 0.0
2018-Apr-14 13:27N 36°50' W 076°17'0 0.0
2018-Apr-14 12:48N 36°50' W 076°17'0 0.0
2018-Apr-14 12:27N 36°50' W 076°17'0 0.0
2018-Apr-14 11:51N 36°50' W 076°17'0 0.0
2018-Apr-14 00:09N 36°50' W 076°17'0 0.0
2018-Apr-13 23:51N 36°50' W 076°17'0 0.0
2018-Apr-13 23:27N 36°50' W 076°17'0 0.1
2018-Apr-13 20:51N 36°51' W 076°17'3 7.0
2018-Apr-13 20:23N 36°53' W 076°20'3 2.4
2018-Apr-13 19:06N 36°56' W 076°20'0 0.5
2018-Apr-13 19:00N 36°56' W 076°20'3 6.2
2018-Apr-13 18:30N 36°53' W 076°20'3 0.2
2018-Apr-13 04:00N 36°50' W 076°17'0 0.0
2018-Apr-13 01:57N 36°50' W 076°17'0 0.0
2018-Apr-12 22:18N 36°50' W 076°17'1 2.4
2018-Apr-12 22:00N 36°50' W 076°18'2 3.7
2018-Apr-12 21:28N 36°48' W 076°18'0 0.0
2018-Apr-12 20:58N 36°48' W 076°18'0 0.0
2018-Apr-12 20:28N 36°48' W 076°18'0 0.0
2018-Apr-12 19:58N 36°48' W 076°18'0 0.0
2018-Apr-12 19:28N 36°48' W 076°18'0 0.0
2018-Apr-12 18:58N 36°48' W 076°18'0 0.0
2018-Apr-12 18:28N 36°48' W 076°18'0 0.0
2018-Apr-12 17:58N 36°48' W 076°18'0 0.0
2018-Apr-12 17:25N 36°48' W 076°18'0 0.0
2018-Apr-12 16:58N 36°48' W 076°18'0 0.0
2018-Apr-12 16:28N 36°48' W 076°18'0 0.0
2018-Apr-12 15:58N 36°48' W 076°18'0 0.0
2018-Apr-12 15:28N 36°48' W 076°18'0 0.0
2018-Apr-12 14:58N 36°48' W 076°18'0 0.0
2018-Apr-12 14:28N 36°48' W 076°18'0 0.0
2018-Apr-12 13:58N 36°48' W 076°18'0 0.0
2018-Apr-12 13:28N 36°48' W 076°18'0 0.0
2018-Apr-12 12:58N 36°48' W 076°18'0 0.0
2018-Apr-12 12:28N 36°48' W 076°18'0 0.0
2018-Apr-12 11:58N 36°48' W 076°18'0 0.0
2018-Apr-12 11:28N 36°48' W 076°18'0 0.0
2018-Apr-12 10:58N 36°48' W 076°18'0 0.0
2018-Apr-12 10:22N 36°48' W 076°18'0 0.0
2018-Apr-12 09:58N 36°48' W 076°18'0 0.0
2018-Apr-12 09:28N 36°48' W 076°18'0 0.0
2018-Apr-12 08:58N 36°48' W 076°18'0 0.0
2018-Apr-12 08:25N 36°48' W 076°18'0 0.0
2018-Apr-12 07:58N 36°48' W 076°18'0 0.0
2018-Apr-12 07:28N 36°48' W 076°18'0 0.0
2018-Apr-12 06:58N 36°48' W 076°18'0 0.0
2018-Apr-12 06:28N 36°48' W 076°18'0 0.0
2018-Apr-12 05:58N 36°48' W 076°18'0 0.0
2018-Apr-12 05:28N 36°48' W 076°18'0 0.0
2018-Apr-12 04:58N 36°48' W 076°18'0 0.0
2018-Apr-12 04:28N 36°48' W 076°18'0 0.0
2018-Apr-12 03:58N 36°48' W 076°18'0 0.0
2018-Apr-12 03:28N 36°48' W 076°18'0 0.0
2018-Apr-12 02:58N 36°48' W 076°18'0 0.0
2018-Apr-12 02:28N 36°48' W 076°18'0 0.0
2018-Apr-12 01:58N 36°48' W 076°18'0 0.0
2018-Apr-12 01:28N 36°48' W 076°18'0 0.0
2018-Apr-12 00:58N 36°48' W 076°18'0 0.0
2018-Apr-12 00:28N 36°48' W 076°18'0 0.0
2018-Apr-11 23:58N 36°48' W 076°18'0 0.0
2018-Apr-11 23:28N 36°48' W 076°18'0 0.0
2018-Apr-11 22:58N 36°48' W 076°18'0 0.0
2018-Apr-11 22:28N 36°48' W 076°18'0 0.0
2018-Apr-11 21:58N 36°48' W 076°18'0 0.0
2018-Apr-11 21:28N 36°48' W 076°18'0 0.0
2018-Apr-11 20:58N 36°48' W 076°18'0 0.0
2018-Apr-11 20:25N 36°48' W 076°18'0 0.0
2018-Apr-11 19:58N 36°48' W 076°18'0 0.0
2018-Apr-11 19:28N 36°48' W 076°18'0 0.0
2018-Apr-11 19:01N 36°48' W 076°18'0 0.0
2018-Apr-11 18:25N 36°48' W 076°18'0 0.0
2018-Apr-11 17:58N 36°48' W 076°18'0 0.0
2018-Apr-11 17:28N 36°48' W 076°18'0 0.0
2018-Apr-11 16:58N 36°48' W 076°18'0 0.0
2018-Apr-11 16:28N 36°48' W 076°18'0 0.0
2018-Apr-11 16:01N 36°48' W 076°18'0 0.0
2018-Apr-11 15:28N 36°48' W 076°18'0 0.0
2018-Apr-11 14:58N 36°48' W 076°18'0 0.0
2018-Apr-11 14:28N 36°48' W 076°18'0 0.0
2018-Apr-11 13:58N 36°48' W 076°18'0 0.0
2018-Apr-11 13:28N 36°48' W 076°18'0 0.0
2018-Apr-11 12:58N 36°48' W 076°18'0 0.0
2018-Apr-11 12:28N 36°48' W 076°18'0 0.0
2018-Apr-11 11:58N 36°48' W 076°18'0 0.0
2018-Apr-11 11:28N 36°48' W 076°18'0 0.0
2018-Apr-11 10:58N 36°48' W 076°18'0 0.0
2018-Apr-11 10:31N 36°48' W 076°18'0 0.0
2018-Apr-11 10:00N 36°48' W 076°18'0 0.0
2018-Apr-11 09:31N 36°48' W 076°18'0 0.0
2018-Apr-11 08:57N 36°48' W 076°18'0 0.0
2018-Apr-11 08:30N 36°48' W 076°18'0 0.0
2018-Apr-11 07:58N 36°48' W 076°18'0 0.0
2018-Apr-11 07:27N 36°48' W 076°18'0 0.0
2018-Apr-11 06:58N 36°48' W 076°18'0 0.0
2018-Apr-11 06:30N 36°48' W 076°18'0 0.0
2018-Apr-11 05:58N 36°48' W 076°18'0 0.0
2018-Apr-11 05:28N 36°48' W 076°18'0 0.0
2018-Apr-11 05:01N 36°48' W 076°18'0 0.0
2018-Apr-11 04:30N 36°48' W 076°18'0 0.0
2018-Apr-11 04:01N 36°48' W 076°18'0 0.1
2018-Apr-11 03:30N 36°48' W 076°18'0 0.0
2018-Apr-11 03:00N 36°48' W 076°18'0 0.0
2018-Apr-11 02:30N 36°48' W 076°18'0 0.0
2018-Apr-11 02:00N 36°48' W 076°18'0 0.0
2018-Apr-11 01:30N 36°48' W 076°18'0 0.0
2018-Apr-11 01:00N 36°48' W 076°18'0 0.0
2018-Apr-11 00:30N 36°48' W 076°18'0 0.0
2018-Apr-11 00:00N 36°48' W 076°18'0 0.0
2018-Apr-10 23:30N 36°48' W 076°18'0 0.0
2018-Apr-10 23:00N 36°48' W 076°18'0 0.1
2018-Apr-10 22:30N 36°48' W 076°18'0 0.0
2018-Apr-10 22:00N 36°48' W 076°18'0 0.0
2018-Apr-10 21:30N 36°48' W 076°18'0 0.0
2018-Apr-10 20:57N 36°48' W 076°18'0 0.0
2018-Apr-10 20:30N 36°48' W 076°18'0 0.0
2018-Apr-10 20:00N 36°48' W 076°18'0 0.0
2018-Apr-10 19:30N 36°48' W 076°18'0 0.0
2018-Apr-10 19:00N 36°48' W 076°18'0 0.0
2018-Apr-10 18:30N 36°48' W 076°18'0 0.0
2018-Apr-10 18:00N 36°48' W 076°18'0 0.0
2018-Apr-10 17:30N 36°48' W 076°18'0 0.0
2018-Apr-10 17:00N 36°48' W 076°18'0 0.0
2018-Apr-10 16:30N 36°48' W 076°18'0 0.0
2018-Apr-10 16:00N 36°48' W 076°18'0 0.0
2018-Apr-10 15:30N 36°48' W 076°18'0 0.0
2018-Apr-10 15:00N 36°48' W 076°18'0 0.0
2018-Apr-10 14:30N 36°48' W 076°18'0 0.0
2018-Apr-10 14:00N 36°48' W 076°18'0 0.0
2018-Apr-10 13:30N 36°48' W 076°18'0 0.0
2018-Apr-10 13:00N 36°48' W 076°18'0 0.0
2018-Apr-10 12:30N 36°48' W 076°18'0 0.1
2018-Apr-10 11:58N 36°48' W 076°18'0 0.0
2018-Apr-10 11:28N 36°48' W 076°18'0 0.1
2018-Apr-10 11:00N 36°48' W 076°18'0 0.1
2018-Apr-10 10:29N 36°48' W 076°18'0 0.0
2018-Apr-10 09:59N 36°48' W 076°18'0 0.0
2018-Apr-10 09:29N 36°48' W 076°18'0 0.0
2018-Apr-10 08:59N 36°48' W 076°18'0 0.0
2018-Apr-10 08:29N 36°48' W 076°18'0 0.0
2018-Apr-10 07:59N 36°48' W 076°18'0 0.0
2018-Apr-10 07:29N 36°48' W 076°18'0 0.0
2018-Apr-10 06:59N 36°48' W 076°18'0 0.0
2018-Apr-10 06:29N 36°48' W 076°18'0 0.0
2018-Apr-10 05:59N 36°48' W 076°18'0 0.0
2018-Apr-10 05:29N 36°48' W 076°18'0 0.0
2018-Apr-10 04:59N 36°48' W 076°18'0 0.0
2018-Apr-10 04:29N 36°48' W 076°18'0 0.0
2018-Apr-10 03:59N 36°48' W 076°18'0 0.0
2018-Apr-10 03:29N 36°48' W 076°18'0 0.0
2018-Apr-10 02:59N 36°48' W 076°18'0 0.3
2018-Apr-10 02:27N 36°48' W 076°18'0 0.1
2018-Apr-10 02:00N 36°48' W 076°18'0 0.3
2018-Apr-10 01:29N 36°48' W 076°18'0 0.0
2018-Apr-10 00:59N 36°48' W 076°18'0 0.0
2018-Apr-10 00:29N 36°48' W 076°18'0 0.0
2018-Apr-09 23:59N 36°48' W 076°18'0 0.0
2018-Apr-09 23:29N 36°48' W 076°18'0 0.0
2018-Apr-09 22:59N 36°48' W 076°18'0 0.0
2018-Apr-09 22:26N 36°48' W 076°18'0 0.0
2018-Apr-09 21:59N 36°48' W 076°18'0 0.0
2018-Apr-09 21:26N 36°48' W 076°18'0 0.0
2018-Apr-09 20:59N 36°48' W 076°18'0 0.0
2018-Apr-09 20:29N 36°48' W 076°18'0 0.0
2018-Apr-09 19:59N 36°48' W 076°18'0 0.0
2018-Apr-09 19:29N 36°48' W 076°18'0 0.0
2018-Apr-09 18:56N 36°48' W 076°18'0 0.0
2018-Apr-09 18:29N 36°48' W 076°18'0 0.0
2018-Apr-09 17:59N 36°48' W 076°18'0 0.0
2018-Apr-09 17:29N 36°48' W 076°18'0 0.0
2018-Apr-09 16:59N 36°48' W 076°18'0 0.0
2018-Apr-09 16:29N 36°48' W 076°18'0 0.1
2018-Apr-09 15:59N 36°48' W 076°18'0 0.2
2018-Apr-09 15:29N 36°48' W 076°18'0 0.1
2018-Apr-09 14:59N 36°48' W 076°18'0 0.0
2018-Apr-09 14:29N 36°48' W 076°18'0 0.0
2018-Apr-09 13:59N 36°48' W 076°18'0 0.0
2018-Apr-09 13:29N 36°48' W 076°18'0 0.0
2018-Apr-09 12:59N 36°48' W 076°18'0 0.0
2018-Apr-09 12:29N 36°48' W 076°18'0 0.0
2018-Apr-09 11:59N 36°48' W 076°18'0 0.0
2018-Apr-09 11:29N 36°48' W 076°18'0 0.0
2018-Apr-09 10:59N 36°48' W 076°18'0 0.0
2018-Apr-09 10:29N 36°48' W 076°18'0 0.0
2018-Apr-09 09:59N 36°48' W 076°18'0 0.0
2018-Apr-09 09:29N 36°48' W 076°18'0 0.0
2018-Apr-09 08:59N 36°48' W 076°18'0 0.0
2018-Apr-09 08:29N 36°48' W 076°18'0 0.0
2018-Apr-09 07:59N 36°48' W 076°18'0 0.0
2018-Apr-09 07:29N 36°48' W 076°18'0 0.0
2018-Apr-09 06:59N 36°48' W 076°18'0 0.0
2018-Apr-09 06:29N 36°48' W 076°18'0 0.0
2018-Apr-09 05:59N 36°48' W 076°18'0 0.0
2018-Apr-09 05:29N 36°48' W 076°18'0 0.0
2018-Apr-09 04:59N 36°48' W 076°18'0 0.0
2018-Apr-09 04:29N 36°48' W 076°18'0 0.0
2018-Apr-09 03:56N 36°48' W 076°18'0 0.0
2018-Apr-09 03:29N 36°48' W 076°18'0 0.0
2018-Apr-09 02:59N 36°48' W 076°18'0 0.0
2018-Apr-09 02:29N 36°48' W 076°18'0 0.0
2018-Apr-09 01:59N 36°48' W 076°18'0 0.0
2018-Apr-09 01:29N 36°48' W 076°18'0 0.0
2018-Apr-09 00:59N 36°48' W 076°18'0 0.0
2018-Apr-09 00:29N 36°48' W 076°18'0 0.0
2018-Apr-08 23:59N 36°48' W 076°18'0 0.0
2018-Apr-08 23:26N 36°48' W 076°18'0 0.0
2018-Apr-08 22:59N 36°48' W 076°18'0 0.0
2018-Apr-08 22:26N 36°48' W 076°18'0 0.0
2018-Apr-08 21:59N 36°48' W 076°18'0 0.1
2018-Apr-08 21:30N 36°48' W 076°18'0 0.0
2018-Apr-08 21:00N 36°48' W 076°18'0 0.0
2018-Apr-08 20:29N 36°48' W 076°18'0 0.0
2018-Apr-08 19:59N 36°48' W 076°18'0 0.0
2018-Apr-08 19:30N 36°48' W 076°18'0 0.0
2018-Apr-08 19:00N 36°48' W 076°18'0 0.0
2018-Apr-08 18:30N 36°48' W 076°18'0 0.0
2018-Apr-08 18:00N 36°48' W 076°18'0 0.0
2018-Apr-08 17:30N 36°48' W 076°18'0 0.0
2018-Apr-08 17:00N 36°48' W 076°18'0 0.0
2018-Apr-08 16:30N 36°48' W 076°18'0 0.0
2018-Apr-08 16:00N 36°48' W 076°18'0 0.0
2018-Apr-08 15:29N 36°48' W 076°18'0 0.0
2018-Apr-08 14:59N 36°48' W 076°18'0 0.0
2018-Apr-08 14:29N 36°48' W 076°18'0 0.0
2018-Apr-08 13:59N 36°48' W 076°18'0 0.0
2018-Apr-08 13:29N 36°48' W 076°18'0 0.0
2018-Apr-08 12:59N 36°48' W 076°18'0 0.0
2018-Apr-08 12:29N 36°48' W 076°18'0 0.0
2018-Apr-08 11:59N 36°48' W 076°18'0 0.0
2018-Apr-08 11:29N 36°48' W 076°18'0 0.0
2018-Apr-08 10:59N 36°48' W 076°18'0 0.0
2018-Apr-08 10:29N 36°48' W 076°18'0 0.0
2018-Apr-08 09:59N 36°48' W 076°18'0 0.0
2018-Apr-08 09:29N 36°48' W 076°18'0 0.0
2018-Apr-08 08:59N 36°48' W 076°18'0 0.0
2018-Apr-08 08:29N 36°48' W 076°18'0 0.0
2018-Apr-08 07:59N 36°48' W 076°18'0 0.0
2018-Apr-08 07:29N 36°48' W 076°18'0 0.0
2018-Apr-08 06:59N 36°48' W 076°18'0 0.0
2018-Apr-08 06:29N 36°48' W 076°18'0 0.0
2018-Apr-08 05:59N 36°48' W 076°18'0 0.0
2018-Apr-08 05:29N 36°48' W 076°18'0 0.0
2018-Apr-08 04:59N 36°48' W 076°18'0 0.0
2018-Apr-08 04:29N 36°48' W 076°18'0 0.0
2018-Apr-08 04:00N 36°48' W 076°18'0 0.0
2018-Apr-08 03:29N 36°48' W 076°18'0 0.0
2018-Apr-08 02:59N 36°48' W 076°18'0 0.0
2018-Apr-08 02:29N 36°48' W 076°18'0 0.0
2018-Apr-08 02:00N 36°48' W 076°18'0 0.0
2018-Apr-08 01:26N 36°48' W 076°18'0 0.0
2018-Apr-08 00:59N 36°48' W 076°18'0 0.0
2018-Apr-08 00:29N 36°48' W 076°18'0 0.0
2018-Apr-07 23:59N 36°48' W 076°18'0 0.0
2018-Apr-07 23:29N 36°48' W 076°18'0 0.0
2018-Apr-07 22:59N 36°48' W 076°18'0 0.0
2018-Apr-07 22:29N 36°48' W 076°18'0 0.0
2018-Apr-07 21:59N 36°48' W 076°18'0 0.0
2018-Apr-07 21:29N 36°48' W 076°18'0 0.0
2018-Apr-07 20:59N 36°48' W 076°18'0 0.0
2018-Apr-07 20:29N 36°48' W 076°18'0 0.0
2018-Apr-07 19:59N 36°48' W 076°18'0 0.0
2018-Apr-07 19:29N 36°48' W 076°18'0 0.0
2018-Apr-07 18:59N 36°48' W 076°18'0 0.0
2018-Apr-07 18:29N 36°48' W 076°18'0 0.0
2018-Apr-07 17:59N 36°48' W 076°18'  
Track history (hours):
 
Tides and Currents Weather Stations Pressure Air Temp Water Temp Dewpoint Dewpoint Depression Visibility Wind Speed Wind Dir Waves Ship Positions

Chief

Owner: T & C TOWING INC, ELIZABETH CITY, NC. More information available from US FCC via Universal Licensing System and Coast Guard Vessel Documentation Center.

Last reported at 2018-Apr-17 17:42 UTC. Time now 2018-Jun-24 05:09 UTC.
Position N 36°50' W 076°17'.
Warning: this ship's position is months out of date.

Length 30 m; draft 0.3 m.

Type: Tug. MMSI: 280001.

Date/timePositionNaut miles runAvg speedWind from/ knotsBaromVisibWave heightAir tempDewpointWater temp
2018-Apr-17 17:42N 36°50' W 076°17'0 0.0
2018-Apr-17 17:30N 36°50' W 076°17'0 0.0
2018-Apr-17 17:00N 36°50' W 076°17'0 0.1
2018-Apr-17 16:29N 36°50' W 076°17'6 1.2
2018-Apr-17 11:44N 36°56' W 076°20'0 0.0
2018-Apr-17 11:30N 36°56' W 076°20'0 0.0
2018-Apr-17 11:00N 36°56' W 076°20'0 0.0
2018-Apr-17 10:30N 36°56' W 076°20'0 0.0
2018-Apr-17 09:58N 36°56' W 076°20'0 0.0
2018-Apr-17 09:22N 36°56' W 076°20'0 0.0
2018-Apr-17 08:52N 36°56' W 076°20'0 0.0
2018-Apr-17 08:30N 36°56' W 076°20'0 0.0
2018-Apr-17 08:00N 36°56' W 076°20'0 0.0
2018-Apr-17 07:30N 36°56' W 076°20'0 0.0
2018-Apr-17 07:00N 36°56' W 076°20'0 0.0
2018-Apr-17 06:15N 36°56' W 076°20'0 0.0
2018-Apr-17 05:45N 36°56' W 076°20'0 0.0
2018-Apr-17 05:30N 36°56' W 076°20'0 0.0
2018-Apr-17 05:00N 36°56' W 076°20'0 0.0
2018-Apr-17 04:30N 36°56' W 076°20'0 0.0
2018-Apr-17 03:59N 36°56' W 076°20'0 0.0
2018-Apr-17 03:30N 36°56' W 076°20'0 0.0
2018-Apr-17 03:00N 36°56' W 076°20'0 0.0
2018-Apr-17 02:30N 36°56' W 076°20'0 0.0
2018-Apr-17 02:00N 36°56' W 076°20'0 0.0
2018-Apr-17 01:30N 36°56' W 076°20'0 0.0
2018-Apr-17 01:00N 36°56' W 076°20'0 0.0
2018-Apr-17 00:30N 36°56' W 076°20'0 0.0
2018-Apr-17 00:00N 36°56' W 076°20'0 0.0
2018-Apr-16 23:27N 36°56' W 076°20'0 0.0
2018-Apr-16 22:46N 36°56' W 076°20'0 0.0
2018-Apr-16 22:28N 36°56' W 076°20'0 0.0
2018-Apr-16 18:54N 36°56' W 076°20'0 0.0
2018-Apr-16 17:25N 36°56' W 076°20'0 0.0
2018-Apr-16 17:00N 36°56' W 076°20'0 0.0
2018-Apr-16 16:30N 36°56' W 076°20'0 0.0
2018-Apr-16 14:50N 36°56' W 076°20'0 0.0
2018-Apr-16 14:28N 36°56' W 076°20'0 0.0
2018-Apr-16 14:00N 36°56' W 076°20'0 0.0
2018-Apr-16 13:25N 36°56' W 076°20'0 0.0
2018-Apr-16 12:59N 36°56' W 076°20'3 1.2
2018-Apr-16 10:57N 36°53' W 076°20'4 8.0
2018-Apr-16 10:30N 36°51' W 076°17'0 0.1
2018-Apr-16 04:36N 36°50' W 076°17'0 0.0
2018-Apr-16 04:24N 36°50' W 076°17'0 0.0
2018-Apr-16 02:36N 36°50' W 076°17'0 0.0
2018-Apr-16 02:12N 36°50' W 076°17'0 0.0
2018-Apr-15 15:03N 36°50' W 076°17'0 0.0
2018-Apr-15 14:48N 36°50' W 076°17'0 0.0
2018-Apr-15 14:30N 36°50' W 076°17'0 0.0
2018-Apr-15 13:15N 36°50' W 076°17'0 0.0
2018-Apr-15 12:57N 36°50' W 076°17'0 0.0
2018-Apr-15 12:30N 36°50' W 076°17'0 0.0
2018-Apr-14 18:33N 36°50' W 076°17'0 0.0
2018-Apr-14 18:21N 36°50' W 076°17'0 0.0
2018-Apr-14 16:27N 36°50' W 076°17'0 0.0
2018-Apr-14 15:51N 36°50' W 076°17'0 0.0
2018-Apr-14 15:24N 36°50' W 076°17'0 0.0
2018-Apr-14 14:15N 36°50' W 076°17'0 0.0
2018-Apr-14 14:00N 36°50' W 076°17'0 0.0
2018-Apr-14 13:27N 36°50' W 076°17'0 0.0
2018-Apr-14 12:48N 36°50' W 076°17'0 0.0
2018-Apr-14 12:27N 36°50' W 076°17'0 0.0
2018-Apr-14 11:51N 36°50' W 076°17'0 0.0
2018-Apr-14 00:09N 36°50' W 076°17'0 0.0
2018-Apr-13 23:51N 36°50' W 076°17'0 0.0
2018-Apr-13 23:27N 36°50' W 076°17'0 0.1
2018-Apr-13 20:51N 36°51' W 076°17'3 7.0
2018-Apr-13 20:23N 36°53' W 076°20'3 2.4
2018-Apr-13 19:06N 36°56' W 076°20'0 0.5
2018-Apr-13 19:00N 36°56' W 076°20'3 6.2
2018-Apr-13 18:30N 36°53' W 076°20'3 0.2
2018-Apr-13 04:00N 36°50' W 076°17'0 0.0
2018-Apr-13 01:57N 36°50' W 076°17'0 0.0
2018-Apr-12 22:18N 36°50' W 076°17'1 2.4
2018-Apr-12 22:00N 36°50' W 076°18'2 3.7
2018-Apr-12 21:28N 36°48' W 076°18'0 0.0
2018-Apr-12 20:58N 36°48' W 076°18'0 0.0
2018-Apr-12 20:28N 36°48' W 076°18'0 0.0
2018-Apr-12 19:58N 36°48' W 076°18'0 0.0
2018-Apr-12 19:28N 36°48' W 076°18'0 0.0
2018-Apr-12 18:58N 36°48' W 076°18'0 0.0
2018-Apr-12 18:28N 36°48' W 076°18'0 0.0
2018-Apr-12 17:58N 36°48' W 076°18'0 0.0
2018-Apr-12 17:25N 36°48' W 076°18'0 0.0
2018-Apr-12 16:58N 36°48' W 076°18'0 0.0
2018-Apr-12 16:28N 36°48' W 076°18'0 0.0
2018-Apr-12 15:58N 36°48' W 076°18'0 0.0
2018-Apr-12 15:28N 36°48' W 076°18'0 0.0
2018-Apr-12 14:58N 36°48' W 076°18'0 0.0
2018-Apr-12 14:28N 36°48' W 076°18'0 0.0
2018-Apr-12 13:58N 36°48' W 076°18'0 0.0
2018-Apr-12 13:28N 36°48' W 076°18'0 0.0
2018-Apr-12 12:58N 36°48' W 076°18'0 0.0
2018-Apr-12 12:28N 36°48' W 076°18'0 0.0
2018-Apr-12 11:58N 36°48' W 076°18'0 0.0
2018-Apr-12 11:28N 36°48' W 076°18'0 0.0
2018-Apr-12 10:58N 36°48' W 076°18'0 0.0
2018-Apr-12 10:22N 36°48' W 076°18'0 0.0
2018-Apr-12 09:58N 36°48' W 076°18'0 0.0
2018-Apr-12 09:28N 36°48' W 076°18'0 0.0
2018-Apr-12 08:58N 36°48' W 076°18'0 0.0
2018-Apr-12 08:25N 36°48' W 076°18'0 0.0
2018-Apr-12 07:58N 36°48' W 076°18'0 0.0
2018-Apr-12 07:28N 36°48' W 076°18'0 0.0
2018-Apr-12 06:58N 36°48' W 076°18'0 0.0
2018-Apr-12 06:28N 36°48' W 076°18'0 0.0
2018-Apr-12 05:58N 36°48' W 076°18'0 0.0
2018-Apr-12 05:28N 36°48' W 076°18'0 0.0
2018-Apr-12 04:58N 36°48' W 076°18'0 0.0
2018-Apr-12 04:28N 36°48' W 076°18'0 0.0
2018-Apr-12 03:58N 36°48' W 076°18'0 0.0
2018-Apr-12 03:28N 36°48' W 076°18'0 0.0
2018-Apr-12 02:58N 36°48' W 076°18'0 0.0
2018-Apr-12 02:28N 36°48' W 076°18'0 0.0
2018-Apr-12 01:58N 36°48' W 076°18'0 0.0
2018-Apr-12 01:28N 36°48' W 076°18'0 0.0
2018-Apr-12 00:58N 36°48' W 076°18'0 0.0
2018-Apr-12 00:28N 36°48' W 076°18'0 0.0
2018-Apr-11 23:58N 36°48' W 076°18'0 0.0
2018-Apr-11 23:28N 36°48' W 076°18'0 0.0
2018-Apr-11 22:58N 36°48' W 076°18'0 0.0
2018-Apr-11 22:28N 36°48' W 076°18'0 0.0
2018-Apr-11 21:58N 36°48' W 076°18'0 0.0
2018-Apr-11 21:28N 36°48' W 076°18'0 0.0
2018-Apr-11 20:58N 36°48' W 076°18'0 0.0
2018-Apr-11 20:25N 36°48' W 076°18'0 0.0
2018-Apr-11 19:58N 36°48' W 076°18'0 0.0
2018-Apr-11 19:28N 36°48' W 076°18'0 0.0
2018-Apr-11 19:01N 36°48' W 076°18'0 0.0
2018-Apr-11 18:25N 36°48' W 076°18'0 0.0
2018-Apr-11 17:58N 36°48' W 076°18'0 0.0
2018-Apr-11 17:28N 36°48' W 076°18'0 0.0
2018-Apr-11 16:58N 36°48' W 076°18'0 0.0
2018-Apr-11 16:28N 36°48' W 076°18'0 0.0
2018-Apr-11 16:01N 36°48' W 076°18'0 0.0
2018-Apr-11 15:28N 36°48' W 076°18'0 0.0
2018-Apr-11 14:58N 36°48' W 076°18'0 0.0
2018-Apr-11 14:28N 36°48' W 076°18'0 0.0
2018-Apr-11 13:58N 36°48' W 076°18'0 0.0
2018-Apr-11 13:28N 36°48' W 076°18'0 0.0
2018-Apr-11 12:58N 36°48' W 076°18'0 0.0
2018-Apr-11 12:28N 36°48' W 076°18'0 0.0
2018-Apr-11 11:58N 36°48' W 076°18'0 0.0
2018-Apr-11 11:28N 36°48' W 076°18'0 0.0
2018-Apr-11 10:58N 36°48' W 076°18'0 0.0
2018-Apr-11 10:31N 36°48' W 076°18'0 0.0
2018-Apr-11 10:00N 36°48' W 076°18'0 0.0
2018-Apr-11 09:31N 36°48' W 076°18'0 0.0
2018-Apr-11 08:57N 36°48' W 076°18'0 0.0
2018-Apr-11 08:30N 36°48' W 076°18'0 0.0
2018-Apr-11 07:58N 36°48' W 076°18'0 0.0
2018-Apr-11 07:27N 36°48' W 076°18'0 0.0
2018-Apr-11 06:58N 36°48' W 076°18'0 0.0
2018-Apr-11 06:30N 36°48' W 076°18'0 0.0
2018-Apr-11 05:58N 36°48' W 076°18'0 0.0
2018-Apr-11 05:28N 36°48' W 076°18'0 0.0
2018-Apr-11 05:01N 36°48' W 076°18'0 0.0
2018-Apr-11 04:30N 36°48' W 076°18'0 0.0
2018-Apr-11 04:01N 36°48' W 076°18'0 0.1
2018-Apr-11 03:30N 36°48' W 076°18'0 0.0
2018-Apr-11 03:00N 36°48' W 076°18'0 0.0
2018-Apr-11 02:30N 36°48' W 076°18'0 0.0
2018-Apr-11 02:00N 36°48' W 076°18'0 0.0
2018-Apr-11 01:30N 36°48' W 076°18'0 0.0
2018-Apr-11 01:00N 36°48' W 076°18'0 0.0
2018-Apr-11 00:30N 36°48' W 076°18'0 0.0
2018-Apr-11 00:00N 36°48' W 076°18'0 0.0
2018-Apr-10 23:30N 36°48' W 076°18'0 0.0
2018-Apr-10 23:00N 36°48' W 076°18'0 0.1
2018-Apr-10 22:30N 36°48' W 076°18'0 0.0
2018-Apr-10 22:00N 36°48' W 076°18'0 0.0
2018-Apr-10 21:30N 36°48' W 076°18'0 0.0
2018-Apr-10 20:57N 36°48' W 076°18'0 0.0
2018-Apr-10 20:30N 36°48' W 076°18'0 0.0
2018-Apr-10 20:00N 36°48' W 076°18'0 0.0
2018-Apr-10 19:30N 36°48' W 076°18'0 0.0
2018-Apr-10 19:00N 36°48' W 076°18'0 0.0
2018-Apr-10 18:30N 36°48' W 076°18'0 0.0
2018-Apr-10 18:00N 36°48' W 076°18'0 0.0
2018-Apr-10 17:30N 36°48' W 076°18'0 0.0
2018-Apr-10 17:00N 36°48' W 076°18'0 0.0
2018-Apr-10 16:30N 36°48' W 076°18'0 0.0
2018-Apr-10 16:00N 36°48' W 076°18'0 0.0
2018-Apr-10 15:30N 36°48' W 076°18'0 0.0
2018-Apr-10 15:00N 36°48' W 076°18'0 0.0
2018-Apr-10 14:30N 36°48' W 076°18'0 0.0
2018-Apr-10 14:00N 36°48' W 076°18'0 0.0
2018-Apr-10 13:30N 36°48' W 076°18'0 0.0
2018-Apr-10 13:00N 36°48' W 076°18'0 0.0
2018-Apr-10 12:30N 36°48' W 076°18'0 0.1
2018-Apr-10 11:58N 36°48' W 076°18'0 0.0
2018-Apr-10 11:28N 36°48' W 076°18'0 0.1
2018-Apr-10 11:00N 36°48' W 076°18'0 0.1
2018-Apr-10 10:29N 36°48' W 076°18'0 0.0
2018-Apr-10 09:59N 36°48' W 076°18'0 0.0
2018-Apr-10 09:29N 36°48' W 076°18'0 0.0
2018-Apr-10 08:59N 36°48' W 076°18'0 0.0
2018-Apr-10 08:29N 36°48' W 076°18'0 0.0
2018-Apr-10 07:59N 36°48' W 076°18'0 0.0
2018-Apr-10 07:29N 36°48' W 076°18'0 0.0
2018-Apr-10 06:59N 36°48' W 076°18'0 0.0
2018-Apr-10 06:29N 36°48' W 076°18'0 0.0
2018-Apr-10 05:59N 36°48' W 076°18'0 0.0
2018-Apr-10 05:29N 36°48' W 076°18'0 0.0
2018-Apr-10 04:59N 36°48' W 076°18'0 0.0
2018-Apr-10 04:29N 36°48' W 076°18'0 0.0
2018-Apr-10 03:59N 36°48' W 076°18'0 0.0
2018-Apr-10 03:29N 36°48' W 076°18'0 0.0
2018-Apr-10 02:59N 36°48' W 076°18'0 0.3
2018-Apr-10 02:27N 36°48' W 076°18'0 0.1
2018-Apr-10 02:00N 36°48' W 076°18'0 0.3
2018-Apr-10 01:29N 36°48' W 076°18'0 0.0
2018-Apr-10 00:59N 36°48' W 076°18'0 0.0
2018-Apr-10 00:29N 36°48' W 076°18'0 0.0
2018-Apr-09 23:59N 36°48' W 076°18'0 0.0
2018-Apr-09 23:29N 36°48' W 076°18'0 0.0
2018-Apr-09 22:59N 36°48' W 076°18'0 0.0
2018-Apr-09 22:26N 36°48' W 076°18'0 0.0
2018-Apr-09 21:59N 36°48' W 076°18'0 0.0
2018-Apr-09 21:26N 36°48' W 076°18'0 0.0
2018-Apr-09 20:59N 36°48' W 076°18'0 0.0
2018-Apr-09 20:29N 36°48' W 076°18'0 0.0
2018-Apr-09 19:59N 36°48' W 076°18'0 0.0
2018-Apr-09 19:29N 36°48' W 076°18'0 0.0
2018-Apr-09 18:56N 36°48' W 076°18'0 0.0
2018-Apr-09 18:29N 36°48' W 076°18'0 0.0
2018-Apr-09 17:59N 36°48' W 076°18'0 0.0
2018-Apr-09 17:29N 36°48' W 076°18'0 0.0
2018-Apr-09 16:59N 36°48' W 076°18'0 0.0
2018-Apr-09 16:29N 36°48' W 076°18'0 0.1
2018-Apr-09 15:59N 36°48' W 076°18'0 0.2
2018-Apr-09 15:29N 36°48' W 076°18'0 0.1
2018-Apr-09 14:59N 36°48' W 076°18'0 0.0
2018-Apr-09 14:29N 36°48' W 076°18'0 0.0
2018-Apr-09 13:59N 36°48' W 076°18'0 0.0
2018-Apr-09 13:29N 36°48' W 076°18'0 0.0
2018-Apr-09 12:59N 36°48' W 076°18'0 0.0
2018-Apr-09 12:29N 36°48' W 076°18'0 0.0
2018-Apr-09 11:59N 36°48' W 076°18'0 0.0
2018-Apr-09 11:29N 36°48' W 076°18'0 0.0
2018-Apr-09 10:59N 36°48' W 076°18'0 0.0
2018-Apr-09 10:29N 36°48' W 076°18'0 0.0
2018-Apr-09 09:59N 36°48' W 076°18'0 0.0
2018-Apr-09 09:29N 36°48' W 076°18'0 0.0
2018-Apr-09 08:59N 36°48' W 076°18'0 0.0
2018-Apr-09 08:29N 36°48' W 076°18'0 0.0
2018-Apr-09 07:59N 36°48' W 076°18'0 0.0
2018-Apr-09 07:29N 36°48' W 076°18'0 0.0
2018-Apr-09 06:59N 36°48' W 076°18'0 0.0
2018-Apr-09 06:29N 36°48' W 076°18'0 0.0
2018-Apr-09 05:59N 36°48' W 076°18'0 0.0
2018-Apr-09 05:29N 36°48' W 076°18'0 0.0
2018-Apr-09 04:59N 36°48' W 076°18'0 0.0
2018-Apr-09 04:29N 36°48' W 076°18'0 0.0
2018-Apr-09 03:56N 36°48' W 076°18'0 0.0
2018-Apr-09 03:29N 36°48' W 076°18'0 0.0
2018-Apr-09 02:59N 36°48' W 076°18'0 0.0
2018-Apr-09 02:29N 36°48' W 076°18'0 0.0
2018-Apr-09 01:59N 36°48' W 076°18'0 0.0
2018-Apr-09 01:29N 36°48' W 076°18'0 0.0
2018-Apr-09 00:59N 36°48' W 076°18'0 0.0
2018-Apr-09 00:29N 36°48' W 076°18'0 0.0
2018-Apr-08 23:59N 36°48' W 076°18'0 0.0
2018-Apr-08 23:26N 36°48' W 076°18'0 0.0
2018-Apr-08 22:59N 36°48' W 076°18'0 0.0
2018-Apr-08 22:26N 36°48' W 076°18'0 0.0
2018-Apr-08 21:59N 36°48' W 076°18'0 0.1
2018-Apr-08 21:30N 36°48' W 076°18'0 0.0
2018-Apr-08 21:00N 36°48' W 076°18'0 0.0
2018-Apr-08 20:29N 36°48' W 076°18'0 0.0
2018-Apr-08 19:59N 36°48' W 076°18'0 0.0
2018-Apr-08 19:30N 36°48' W 076°18'0 0.0
2018-Apr-08 19:00N 36°48' W 076°18'0 0.0
2018-Apr-08 18:30N 36°48' W 076°18'0 0.0
2018-Apr-08 18:00N 36°48' W 076°18'0 0.0
2018-Apr-08 17:30N 36°48' W 076°18'0 0.0
2018-Apr-08 17:00N 36°48' W 076°18'0 0.0
2018-Apr-08 16:30N 36°48' W 076°18'0 0.0
2018-Apr-08 16:00N 36°48' W 076°18'0 0.0
2018-Apr-08 15:29N 36°48' W 076°18'0 0.0
2018-Apr-08 14:59N 36°48' W 076°18'0 0.0
2018-Apr-08 14:29N 36°48' W 076°18'0 0.0
2018-Apr-08 13:59N 36°48' W 076°18'0 0.0
2018-Apr-08 13:29N 36°48' W 076°18'0 0.0
2018-Apr-08 12:59N 36°48' W 076°18'0 0.0
2018-Apr-08 12:29N 36°48' W 076°18'0 0.0
2018-Apr-08 11:59N 36°48' W 076°18'0 0.0
2018-Apr-08 11:29N 36°48' W 076°18'0 0.0
2018-Apr-08 10:59N 36°48' W 076°18'0 0.0
2018-Apr-08 10:29N 36°48' W 076°18'0 0.0
2018-Apr-08 09:59N 36°48' W 076°18'0 0.0
2018-Apr-08 09:29N 36°48' W 076°18'0 0.0
2018-Apr-08 08:59N 36°48' W 076°18'0 0.0
2018-Apr-08 08:29N 36°48' W 076°18'0 0.0
2018-Apr-08 07:59N 36°48' W 076°18'0 0.0
2018-Apr-08 07:29N 36°48' W 076°18'0 0.0
2018-Apr-08 06:59N 36°48' W 076°18'0 0.0
2018-Apr-08 06:29N 36°48' W 076°18'0 0.0
2018-Apr-08 05:59N 36°48' W 076°18'0 0.0
2018-Apr-08 05:29N 36°48' W 076°18'0 0.0
2018-Apr-08 04:59N 36°48' W 076°18'0 0.0
2018-Apr-08 04:29N 36°48' W 076°18'0 0.0
2018-Apr-08 04:00N 36°48' W 076°18'0 0.0
2018-Apr-08 03:29N 36°48' W 076°18'0 0.0
2018-Apr-08 02:59N 36°48' W 076°18'0 0.0
2018-Apr-08 02:29N 36°48' W 076°18'0 0.0
2018-Apr-08 02:00N 36°48' W 076°18'0 0.0
2018-Apr-08 01:26N 36°48' W 076°18'0 0.0
2018-Apr-08 00:59N 36°48' W 076°18'0 0.0
2018-Apr-08 00:29N 36°48' W 076°18'0 0.0
2018-Apr-07 23:59N 36°48' W 076°18'0 0.0
2018-Apr-07 23:29N 36°48' W 076°18'0 0.0
2018-Apr-07 22:59N 36°48' W 076°18'0 0.0
2018-Apr-07 22:29N 36°48' W 076°18'0 0.0
2018-Apr-07 21:59N 36°48' W 076°18'0 0.0
2018-Apr-07 21:29N 36°48' W 076°18'0 0.0
2018-Apr-07 20:59N 36°48' W 076°18'0 0.0
2018-Apr-07 20:29N 36°48' W 076°18'0 0.0
2018-Apr-07 19:59N 36°48' W 076°18'0 0.0
2018-Apr-07 19:29N 36°48' W 076°18'0 0.0
2018-Apr-07 18:59N 36°48' W 076°18'0 0.0
2018-Apr-07 18:29N 36°48' W 076°18'0 0.0
2018-Apr-07 17:59N 36°48' W 076°18'  

Dump ship's entire track history